Historique des mesures à Cassis (13260), France
Quotidien Résumé Avril 30, 2017 Unités:  US    Métrique   Métrique/US
« Précédent (Jour)
Suivant (Jour) »
Quotidien Hebdomadaire Mensuel Annuel Période au choix
  Maximum: Minimum: Moyenne:
Température: 32 °F 53.2 °F 56.8 °F
Point de rosée: 32 °F 43.3 °F 46.9 °F
Humidité: Humidity % 63 % 66 %
Vitesse du vent: WindSpeedKMH mph 0.0 mph 2.7 mph
Rafales: WindSpeedGustKMH mph - -
Vent:- - SSE
Pression: 0 in 29.8 in -
Précipitations: 0 in    
Historical Graphs
 
 
Mesures pour : Avril 30, 2017
Heure Temperature Point de rosée Pression Vent Vitesse du vent Rafales Humidité Pluie (par heure) Conditions
32 °F 32 °F 0 in Calm     Humidity % 0 in SoftwareType W/m2
00:10 54.5 °F 43.7 °F 29.9 in ENE 5.0 mph 5.0 mph 67 % 0 in open2300-1.11 W/m2
01:10 53.6 °F 43.3 °F 29.9 in Calm   1.4 mph 68 % 0 in open2300-1.11 W/m2
02:10 53.2 °F 43.3 °F 29.9 in Calm     69 % 0 in open2300-1.11 W/m2
03:10 53.8 °F 44.2 °F 29.9 in Calm     70 % 0 in open2300-1.11 W/m2
04:10 54.9 °F 45.3 °F 29.9 in Calm     70 % 0 in open2300-1.11 W/m2
05:10 54 °F 44.8 °F 29.9 in Calm     71 % 0 in open2300-1.11 W/m2
06:10 53.4 °F 44.6 °F 29.9 in Calm   2.1 mph 72 % 0 in open2300-1.11 W/m2
07:11 54.3 °F 45.9 °F 29.9 in Calm   4.3 mph 73 % 0 in open2300-1.11 W/m2
08:10 55.9 °F 46.8 °F 29.9 in Calm   1.8 mph 71 % 0 in open2300-1.11 W/m2
09:10 56.8 °F 47.5 °F 29.9 in SW 2.6 mph 3.5 mph 71 % 0 in open2300-1.11 W/m2
10:11 57.9 °F 48.6 °F 29.9 in South 8.2 mph 8.2 mph 71 % 0 in open2300-1.11 W/m2
11:11 60.1 °F 50 °F 29.9 in WSW 3.2 mph 3.2 mph 69 % 0 in open2300-1.11 W/m2
12:10 61 °F 49.3 °F 29.9 in SE 4.7 mph 4.7 mph 65 % 0 in open2300-1.11 W/m2
13:11 61.2 °F 48.9 °F 29.9 in SE 4.7 mph 11.6 mph 64 % 0 in open2300-1.11 W/m2
14:10 61.7 °F 49.5 °F 29.8 in SSW 1.8 mph 5.8 mph 64 % 0 in open2300-1.11 W/m2
15:10 63.5 °F 50.5 °F 29.8 in SSE 6.1 mph 6.1 mph 63 % 0 in open2300-1.11 W/m2
16:10 61.9 °F 49.6 °F 29.8 in SSE 4.7 mph 15.8 mph 64 % 0 in open2300-1.11 W/m2
17:10 61.5 °F 50.5 °F 29.8 in NE 2.1 mph 9.7 mph 67 % 0 in open2300-1.11 W/m2
18:10 61.2 °F 50.5 °F 29.8 in WSW 4.7 mph 4.7 mph 68 % 0 in open2300-1.11 W/m2
19:10 60.8 °F 48.9 °F 29.8 in SE 7.2 mph 9.3 mph 65 % 0 in open2300-1.11 W/m2
20:10 59.5 °F 48.2 °F 29.8 in South 5.0 mph 5.0 mph 66 % 0 in open2300-1.11 W/m2
21:10 58.8 °F 48.7 °F 29.8 in South 2.1 mph 4.0 mph 69 % 0 in open2300-1.11 W/m2
22:10 58.6 °F 49.6 °F 29.8 in South 3.5 mph 10.1 mph 72 % 0 in open2300-1.11 W/m2
23:10 57.7 °F 50.5 °F 29.8 in ESE 2.1 mph 6.1 mph 77 % 0 in open2300-1.11 W/m2
Observations météo à CASSIS
WU-History script by Weather Underground - 1 mb